Aviation Digital Data Service (ADDS)

Output produced by METARs form (0238 UTC 22 April 2019)
found at http://www.aviationweather.gov/metar/data/
 
METAR text: VGEG 220200Z 10003KT 5000 HZ FEW018 BKN100 28/22 Q1007 NOSIG
Conditions at: VGEG (CHITTAGONG (CV/M, BD) observed 0200 UTC 22 April 2019
Temperature: 28.0°C (82°F)
Dewpoint: 22.0°C (72°F) [RH = 70%]
Pressure (altimeter): 29.73 inches Hg (1007.0 mb)
Winds: from the E (100 degrees) at 3 MPH (3 knots; 1.5 m/s)
Visibility: 3 miles ( 5 km)
Ceiling: 10000 feet AGL
Clouds: few clouds at 1800 feet AGL
broken clouds at 10000 feet AGL
Weather: HZ  (haze)

METAR text: VGEG 220100Z 08004KT 5000 HZ SCT018 BKN100 26/22 Q10087 NOSIG
Conditions at: VGEG (CHITTAGONG (CV/M, BD) observed 0100 UTC 22 April 2019
Temperature: 26.0°C (79°F)
Dewpoint: 22.0°C (72°F) [RH = 79%]
Pressure (altimeter): missing
Winds: from the E (80 degrees) at 5 MPH (4 knots; 2.1 m/s)
Visibility: 3 miles ( 5 km)
Ceiling: 10000 feet AGL
Clouds: scattered clouds at 1800 feet AGL
broken clouds at 10000 feet AGL
Weather: HZ  (haze)

METAR text: VGEG 220000Z 07002KT 5000 HZ SCT018 FEW030CB BKN100 26/22 Q1006 TEMPO TS/RA
Conditions at: VGEG (CHITTAGONG (CV/M, BD) observed 0000 UTC 22 April 2019
Temperature: 26.0°C (79°F)
Dewpoint: 22.0°C (72°F) [RH = 79%]
Pressure (altimeter): 29.70 inches Hg (1006.0 mb)
Winds: from the ENE (70 degrees) at 2 MPH (2 knots; 1.0 m/s)
Visibility: 3 miles ( 5 km)
Ceiling: 10000 feet AGL
Clouds: scattered clouds at 1800 feet AGL
few clouds at 3000 feet AGL
broken clouds at 10000 feet AGL
Weather: HZ  (haze)

METAR text: VGEG 211700Z 30004KT 4000 HZ SCT100 29/24 Q1006 NOSIG
Conditions at: VGEG (CHITTAGONG (CV/M, BD) observed 1700 UTC 21 April 2019
Temperature: 29.0°C (84°F)
Dewpoint: 24.0°C (75°F) [RH = 74%]
Pressure (altimeter): 29.70 inches Hg (1006.0 mb)
Winds: from the WNW (300 degrees) at 5 MPH (4 knots; 2.1 m/s)
Visibility: 2.49 miles (4.01 km)
Ceiling: at least 12,000 feet AGL
Clouds: scattered clouds at 10000 feet AGL
Weather: HZ  (haze)

METAR text: VGEG 211600Z 30005KT 4000 HZ SCT100 30/24 Q1007 NOSIG
Conditions at: VGEG (CHITTAGONG (CV/M, BD) observed 1600 UTC 21 April 2019
Temperature: 30.0°C (86°F)
Dewpoint: 24.0°C (75°F) [RH = 70%]
Pressure (altimeter): 29.73 inches Hg (1007.0 mb)
Winds: from the WNW (300 degrees) at 6 MPH (5 knots; 2.6 m/s)
Visibility: 2.49 miles (4.01 km)
Ceiling: at least 12,000 feet AGL
Clouds: scattered clouds at 10000 feet AGL
Weather: HZ  (haze)

METAR text: VGEG 211500Z 30004KT 4000 HZ SCT100 30/24 Q1006 NOSIG
Conditions at: VGEG (CHITTAGONG (CV/M, BD) observed 1500 UTC 21 April 2019
Temperature: 30.0°C (86°F)
Dewpoint: 24.0°C (75°F) [RH = 70%]
Pressure (altimeter): 29.70 inches Hg (1006.0 mb)
Winds: from the WNW (300 degrees) at 5 MPH (4 knots; 2.1 m/s)
Visibility: 2.49 miles (4.01 km)
Ceiling: at least 12,000 feet AGL
Clouds: scattered clouds at 10000 feet AGL
Weather: HZ  (haze)

METAR text: VGEG 211400Z 30003KT 4000 HZ SCT120 30/23 Q1005 NOSIG
Conditions at: VGEG (CHITTAGONG (CV/M, BD) observed 1400 UTC 21 April 2019
Temperature: 30.0°C (86°F)
Dewpoint: 23.0°C (73°F) [RH = 66%]
Pressure (altimeter): 29.68 inches Hg (1005.0 mb)
Winds: from the WNW (300 degrees) at 3 MPH (3 knots; 1.5 m/s)
Visibility: 2.49 miles (4.01 km)
Ceiling: at least 12,000 feet AGL
Clouds: scattered clouds at 12000 feet AGL
Weather: HZ  (haze)

METAR text: VGEG 211300Z 30004KT 4000 HZ SCT120 31/23 Q1005 NOSIG
Conditions at: VGEG (CHITTAGONG (CV/M, BD) observed 1300 UTC 21 April 2019
Temperature: 31.0°C (88°F)
Dewpoint: 23.0°C (73°F) [RH = 63%]
Pressure (altimeter): 29.68 inches Hg (1005.0 mb)
Winds: from the WNW (300 degrees) at 5 MPH (4 knots; 2.1 m/s)
Visibility: 2.49 miles (4.01 km)
Ceiling: at least 12,000 feet AGL
Clouds: scattered clouds at 12000 feet AGL
Weather: HZ  (haze)

METAR text: VGEG 211200Z 28005KT 4000 HZ SCT120 31/22 Q1004 NOSIG
Conditions at: VGEG (CHITTAGONG (CV/M, BD) observed 1200 UTC 21 April 2019
Temperature: 31.0°C (88°F)
Dewpoint: 22.0°C (72°F) [RH = 59%]
Pressure (altimeter): 29.65 inches Hg (1004.0 mb)
Winds: from the W (280 degrees) at 6 MPH (5 knots; 2.6 m/s)
Visibility: 2.49 miles (4.01 km)
Ceiling: at least 12,000 feet AGL
Clouds: scattered clouds at 12000 feet AGL
Weather: HZ  (haze)

METAR text: VGEG 211100Z 27010KT 4000 HZ SCT120 33/23 Q1004 NOSIG
Conditions at: VGEG (CHITTAGONG (CV/M, BD) observed 1100 UTC 21 April 2019
Temperature: 33.0°C (91°F)
Dewpoint: 23.0°C (73°F) [RH = 56%]
Pressure (altimeter): 29.65 inches Hg (1004.0 mb)
Winds: from the W (270 degrees) at 12 MPH (10 knots; 5.1 m/s)
Visibility: 2.49 miles (4.01 km)
Ceiling: at least 12,000 feet AGL
Clouds: scattered clouds at 12000 feet AGL
Weather: HZ  (haze)

METAR text: VGEG 211000Z 27007KT 4000 HZ NSC 34/23 Q1005 NOSIG
Conditions at: VGEG (CHITTAGONG (CV/M, BD) observed 1000 UTC 21 April 2019
Temperature: 34.0°C (93°F)
Dewpoint: 23.0°C (73°F) [RH = 53%]
Pressure (altimeter): 29.68 inches Hg (1005.0 mb)
Winds: from the W (270 degrees) at 8 MPH (7 knots; 3.6 m/s)
Visibility: 2.49 miles (4.01 km)
Ceiling: at least 12,000 feet AGL
Clouds: sky clear below 12,000 feet AGL
Weather: HZ  (haze)

METAR text: VGEG 210900Z 26005KT 4000 HZ NSC 34/23 Q1005 NOSIG
Conditions at: VGEG (CHITTAGONG (CV/M, BD) observed 0900 UTC 21 April 2019
Temperature: 34.0°C (93°F)
Dewpoint: 23.0°C (73°F) [RH = 53%]
Pressure (altimeter): 29.68 inches Hg (1005.0 mb)
Winds: from the W (260 degrees) at 6 MPH (5 knots; 2.6 m/s)
Visibility: 2.49 miles (4.01 km)
Ceiling: at least 12,000 feet AGL
Clouds: sky clear below 12,000 feet AGL
Weather: HZ  (haze)

METAR text: VGEG 210800Z 25005KT 4000 HZ NSC 34/22 Q1006 NOSIG
Conditions at: VGEG (CHITTAGONG (CV/M, BD) observed 0800 UTC 21 April 2019
Temperature: 34.0°C (93°F)
Dewpoint: 22.0°C (72°F) [RH = 50%]
Pressure (altimeter): 29.70 inches Hg (1006.0 mb)
Winds: from the WSW (250 degrees) at 6 MPH (5 knots; 2.6 m/s)
Visibility: 2.49 miles (4.01 km)
Ceiling: at least 12,000 feet AGL
Clouds: sky clear below 12,000 feet AGL
Weather: HZ  (haze)

METAR text: VGEG 210700Z 24008KT 4000 HZ NSC 34/23 Q1007 NOSIG
Conditions at: VGEG (CHITTAGONG (CV/M, BD) observed 0700 UTC 21 April 2019
Temperature: 34.0°C (93°F)
Dewpoint: 23.0°C (73°F) [RH = 53%]
Pressure (altimeter): 29.73 inches Hg (1007.0 mb)
Winds: from the WSW (240 degrees) at 9 MPH (8 knots; 4.1 m/s)
Visibility: 2.49 miles (4.01 km)
Ceiling: at least 12,000 feet AGL
Clouds: sky clear below 12,000 feet AGL
Weather: HZ  (haze)

METAR text: VGEG 210600Z 00000KT 4000 HZ NSC 33/23 Q1007 NOSIG
Conditions at: VGEG (CHITTAGONG (CV/M, BD) observed 0600 UTC 21 April 2019
Temperature: 33.0°C (91°F)
Dewpoint: 23.0°C (73°F) [RH = 56%]
Pressure (altimeter): 29.73 inches Hg (1007.0 mb)
Winds: calm
Visibility: 2.49 miles (4.01 km)
Ceiling: at least 12,000 feet AGL
Clouds: sky clear below 12,000 feet AGL
Weather: HZ  (haze)

METAR text: VGEG 210500Z 24004KT 4000 HZ FEW120 33/22 Q1008 NOSIG
Conditions at: VGEG (CHITTAGONG (CV/M, BD) observed 0500 UTC 21 April 2019
Temperature: 33.0°C (91°F)
Dewpoint: 22.0°C (72°F) [RH = 53%]
Pressure (altimeter): 29.76 inches Hg (1008.0 mb)
Winds: from the WSW (240 degrees) at 5 MPH (4 knots; 2.1 m/s)
Visibility: 2.49 miles (4.01 km)
Ceiling: at least 12,000 feet AGL
Clouds: few clouds at 12000 feet AGL
Weather: HZ  (haze)

METAR text: VGEG 210400Z 27004KT 4000 HZ FEW120 32/24 Q1009 NOSIG
Conditions at: VGEG (CHITTAGONG (CV/M, BD) observed 0400 UTC 21 April 2019
Temperature: 32.0°C (90°F)
Dewpoint: 24.0°C (75°F) [RH = 63%]
Pressure (altimeter): 29.79 inches Hg (1009.0 mb)
Winds: from the W (270 degrees) at 5 MPH (4 knots; 2.1 m/s)
Visibility: 2.49 miles (4.01 km)
Ceiling: at least 12,000 feet AGL
Clouds: few clouds at 12000 feet AGL
Weather: HZ  (haze)

METAR text: VGEG 210300Z 00000KT 3500 HZ NSC 31/24 Q1008 NOSIG
Conditions at: VGEG (CHITTAGONG (CV/M, BD) observed 0300 UTC 21 April 2019
Temperature: 31.0°C (88°F)
Dewpoint: 24.0°C (75°F) [RH = 66%]
Pressure (altimeter): 29.76 inches Hg (1008.0 mb)
Winds: calm
Visibility: 2.17 miles (3.49 km)
Ceiling: at least 12,000 feet AGL
Clouds: sky clear below 12,000 feet AGL
Weather: HZ  (haze)

METAR text: VGEG 210200Z 00000KT 3100 HZ NSC 28/25 Q1008 NOSIG
Conditions at: VGEG (CHITTAGONG (CV/M, BD) observed 0200 UTC 21 April 2019
Temperature: 28.0°C (82°F)
Dewpoint: 25.0°C (77°F) [RH = 84%]
Pressure (altimeter): 29.76 inches Hg (1008.0 mb)
Winds: calm
Visibility: 1.93 miles (3.11 km)
Ceiling: at least 12,000 feet AGL
Clouds: sky clear below 12,000 feet AGL
Weather: HZ  (haze)

METAR text: VGEG 210100Z 00000KT 3100 HZ NSC 26/25 Q1007 NOSIG
Conditions at: VGEG (CHITTAGONG (CV/M, BD) observed 0100 UTC 21 April 2019
Temperature: 26.0°C (79°F)
Dewpoint: 25.0°C (77°F) [RH = 94%]
Pressure (altimeter): 29.73 inches Hg (1007.0 mb)
Winds: calm
Visibility: 1.93 miles (3.11 km)
Ceiling: at least 12,000 feet AGL
Clouds: sky clear below 12,000 feet AGL
Weather: HZ  (haze)

METAR text: VGEG 210000Z 00000KT 3100 HZ NSC 25/24 Q1006 NOSIG
Conditions at: VGEG (CHITTAGONG (CV/M, BD) observed 0000 UTC 21 April 2019
Temperature: 25.0°C (77°F)
Dewpoint: 24.0°C (75°F) [RH = 94%]
Pressure (altimeter): 29.70 inches Hg (1006.0 mb)
Winds: calm
Visibility: 1.93 miles (3.11 km)
Ceiling: at least 12,000 feet AGL
Clouds: sky clear below 12,000 feet AGL
Weather: HZ  (haze)

METAR text: VGEG 201700Z 00000KT 4000 HZ NSC 28/24 Q1007 NOSIG
Conditions at: VGEG (CHITTAGONG (CV/M, BD) observed 1700 UTC 20 April 2019
Temperature: 28.0°C (82°F)
Dewpoint: 24.0°C (75°F) [RH = 79%]
Pressure (altimeter): 29.73 inches Hg (1007.0 mb)
Winds: calm
Visibility: 2.49 miles (4.01 km)
Ceiling: at least 12,000 feet AGL
Clouds: sky clear below 12,000 feet AGL
Weather: HZ  (haze)

METAR text: VGEG 201600Z 27003KT 4000 HZ NSC 29/24 Q1006 NOSIG
Conditions at: VGEG (CHITTAGONG (CV/M, BD) observed 1600 UTC 20 April 2019
Temperature: 29.0°C (84°F)
Dewpoint: 24.0°C (75°F) [RH = 74%]
Pressure (altimeter): 29.70 inches Hg (1006.0 mb)
Winds: from the W (270 degrees) at 3 MPH (3 knots; 1.5 m/s)
Visibility: 2.49 miles (4.01 km)
Ceiling: at least 12,000 feet AGL
Clouds: sky clear below 12,000 feet AGL
Weather: HZ  (haze)

METAR text: VGEG 201500Z 26004KT 4000 HZ NSC 29/24 Q1006 NOSIG
Conditions at: VGEG (CHITTAGONG (CV/M, BD) observed 1500 UTC 20 April 2019
Temperature: 29.0°C (84°F)
Dewpoint: 24.0°C (75°F) [RH = 74%]
Pressure (altimeter): 29.70 inches Hg (1006.0 mb)
Winds: from the W (260 degrees) at 5 MPH (4 knots; 2.1 m/s)
Visibility: 2.49 miles (4.01 km)
Ceiling: at least 12,000 feet AGL
Clouds: sky clear below 12,000 feet AGL
Weather: HZ  (haze)

Forecast for: VGEG (CHITTAGONG (CV/M, BD)
Text: TAF VGEG 212300Z 2200/2306 16004KT 3200 HZ NSC
Forecast period: 0000 to 0300 UTC 22 April 2019
Forecast type: FROM: standard forecast or significant change
Winds: from the SSE (160 degrees) at 5 MPH (4 knots; 2.1 m/s)
Visibility: 1.99 miles (3.20 km)
Ceiling: unknown
Clouds: missing
Weather: HZ  (haze)
Text: BECMG 2203/2205 24009KT 4500 HZ FEW018
Forecast period: 0300 to 2000 UTC 22 April 2019
Forecast type: BECOMING: Conditions expected to become as follows by 0500 UTC 22 April 2019
Winds: from the WSW (240 degrees) at 10 MPH (9 knots; 4.6 m/s)
Visibility: 2.80 miles (4.51 km)
Ceiling: at least 12,000 feet AGL
Clouds: few clouds at 1800 feet AGL
Weather: HZ  (haze)
Text: BECMG 2220/2222 18003KT 3500 HZ SCT017
Forecast period: 2000 UTC 22 April 2019 to 0200 UTC 23 April 2019
Forecast type: BECOMING: Conditions expected to become as follows by 2200 UTC 22 April 2019
Winds: from the S (180 degrees) at 3 MPH (3 knots; 1.5 m/s)
Visibility: 2.17 miles (3.49 km)
Ceiling: at least 12,000 feet AGL
Clouds: scattered clouds at 1700 feet AGL
Weather: HZ  (haze)
Text: BECMG 2302/2304 23007KT 4000 HZ NSC
Forecast period: 0200 to 0600 UTC 23 April 2019
Forecast type: BECOMING: Conditions expected to become as follows by 0400 UTC 23 April 2019
Winds: from the SW (230 degrees) at 8 MPH (7 knots; 3.6 m/s)
Visibility: 2.49 miles (4.01 km)
Ceiling: unknown
Clouds: missing
Weather: HZ  (haze)